sensor_id;sensor_type;location;lat;lon;timestamp;temperature;humidity
18160;DHT22;9205;52.032;4.314;2024-01-30T00:00:34;9.20;99.90
18160;DHT22;9205;52.032;4.314;2024-01-30T00:03:01;9.20;99.90
18160;DHT22;9205;52.032;4.314;2024-01-30T00:05:29;9.40;99.90
18160;DHT22;9205;52.032;4.314;2024-01-30T00:07:56;9.20;99.90
18160;DHT22;9205;52.032;4.314;2024-01-30T00:10:23;9.30;99.90
18160;DHT22;9205;52.032;4.314;2024-01-30T00:12:50;9.40;99.90
18160;DHT22;9205;52.032;4.314;2024-01-30T00:15:19;9.40;99.90
18160;DHT22;9205;52.032;4.314;2024-01-30T00:17:46;9.30;99.90
18160;DHT22;9205;52.032;4.314;2024-01-30T00:20:14;9.30;99.90
18160;DHT22;9205;52.032;4.314;2024-01-30T00:22:41;9.30;99.90
18160;DHT22;9205;52.032;4.314;2024-01-30T00:25:08;9.20;99.90
18160;DHT22;9205;52.032;4.314;2024-01-30T00:27:36;9.40;99.90
18160;DHT22;9205;52.032;4.314;2024-01-30T00:30:03;9.30;99.90
18160;DHT22;9205;52.032;4.314;2024-01-30T00:32:33;9.40;99.90
18160;DHT22;9205;52.032;4.314;2024-01-30T00:35:01;9.20;99.90
18160;DHT22;9205;52.032;4.314;2024-01-30T00:37:28;9.40;99.90
18160;DHT22;9205;52.032;4.314;2024-01-30T00:39:57;9.40;99.90
18160;DHT22;9205;52.032;4.314;2024-01-30T00:42:24;9.50;99.90
18160;DHT22;9205;52.032;4.314;2024-01-30T00:44:51;9.40;99.90
18160;DHT22;9205;52.032;4.314;2024-01-30T00:47:19;9.50;99.90
18160;DHT22;9205;52.032;4.314;2024-01-30T00:49:47;9.40;99.90
18160;DHT22;9205;52.032;4.314;2024-01-30T00:52:15;9.60;99.90
18160;DHT22;9205;52.032;4.314;2024-01-30T00:54:42;9.40;99.90
18160;DHT22;9205;52.032;4.314;2024-01-30T00:57:09;9.60;99.90
18160;DHT22;9205;52.032;4.314;2024-01-30T00:59:36;9.40;99.90
18160;DHT22;9205;52.032;4.314;2024-01-30T01:02:04;9.60;99.90
18160;DHT22;9205;52.032;4.314;2024-01-30T01:04:31;9.40;99.90
18160;DHT22;9205;52.032;4.314;2024-01-30T01:06:59;9.50;99.90
18160;DHT22;9205;52.032;4.314;2024-01-30T01:09:26;9.60;99.90
18160;DHT22;9205;52.032;4.314;2024-01-30T01:11:54;9.40;99.90
18160;DHT22;9205;52.032;4.314;2024-01-30T01:14:21;9.60;99.90
18160;DHT22;9205;52.032;4.314;2024-01-30T01:16:48;9.50;99.90
18160;DHT22;9205;52.032;4.314;2024-01-30T01:19:15;9.60;99.90
18160;DHT22;9205;52.032;4.314;2024-01-30T01:21:42;9.70;99.90
18160;DHT22;9205;52.032;4.314;2024-01-30T01:24:11;9.60;99.90
18160;DHT22;9205;52.032;4.314;2024-01-30T01:26:38;9.70;99.90
18160;DHT22;9205;52.032;4.314;2024-01-30T01:29:06;9.70;99.90
18160;DHT22;9205;52.032;4.314;2024-01-30T01:31:35;9.70;99.90
18160;DHT22;9205;52.032;4.314;2024-01-30T01:34:09;9.60;99.90
18160;DHT22;9205;52.032;4.314;2024-01-30T01:36:36;9.50;99.90
18160;DHT22;9205;52.032;4.314;2024-01-30T01:39:03;9.60;99.90
18160;DHT22;9205;52.032;4.314;2024-01-30T01:41:32;9.70;99.90
18160;DHT22;9205;52.032;4.314;2024-01-30T01:44:00;9.80;99.90
18160;DHT22;9205;52.032;4.314;2024-01-30T01:46:30;9.70;99.90
18160;DHT22;9205;52.032;4.314;2024-01-30T01:49:00;9.70;99.90
18160;DHT22;9205;52.032;4.314;2024-01-30T01:51:31;9.70;99.90
18160;DHT22;9205;52.032;4.314;2024-01-30T01:54:02;9.60;99.90
18160;DHT22;9205;52.032;4.314;2024-01-30T01:56:33;9.70;99.90
18160;DHT22;9205;52.032;4.314;2024-01-30T01:59:06;9.50;99.90
18160;DHT22;9205;52.032;4.314;2024-01-30T02:01:34;9.50;99.90
18160;DHT22;9205;52.032;4.314;2024-01-30T02:04:03;9.70;99.90
18160;DHT22;9205;52.032;4.314;2024-01-30T02:06:32;9.70;99.90
18160;DHT22;9205;52.032;4.314;2024-01-30T02:09:00;9.80;99.90
18160;DHT22;9205;52.032;4.314;2024-01-30T02:11:28;9.70;99.90
18160;DHT22;9205;52.032;4.314;2024-01-30T02:13:57;9.60;99.90
18160;DHT22;9205;52.032;4.314;2024-01-30T02:16:28;9.70;99.90
18160;DHT22;9205;52.032;4.314;2024-01-30T02:18:55;9.70;99.90
18160;DHT22;9205;52.032;4.314;2024-01-30T02:24:21;9.70;99.90
18160;DHT22;9205;52.032;4.314;2024-01-30T02:26:48;9.70;99.90
18160;DHT22;9205;52.032;4.314;2024-01-30T02:29:15;9.70;99.90
18160;DHT22;9205;52.032;4.314;2024-01-30T02:31:42;9.70;99.90
18160;DHT22;9205;52.032;4.314;2024-01-30T02:34:11;9.60;99.90
18160;DHT22;9205;52.032;4.314;2024-01-30T02:36:38;9.60;99.90
18160;DHT22;9205;52.032;4.314;2024-01-30T02:39:09;9.70;99.90
18160;DHT22;9205;52.032;4.314;2024-01-30T02:41:36;9.70;99.90
18160;DHT22;9205;52.032;4.314;2024-01-30T02:44:04;9.60;99.90
18160;DHT22;9205;52.032;4.314;2024-01-30T02:46:31;9.50;99.90
18160;DHT22;9205;52.032;4.314;2024-01-30T02:48:58;9.60;99.90
18160;DHT22;9205;52.032;4.314;2024-01-30T02:51:25;9.60;99.90
18160;DHT22;9205;52.032;4.314;2024-01-30T02:53:52;9.50;99.90
18160;DHT22;9205;52.032;4.314;2024-01-30T02:56:19;9.50;99.90
18160;DHT22;9205;52.032;4.314;2024-01-30T02:58:48;9.50;99.90
18160;DHT22;9205;52.032;4.314;2024-01-30T03:01:15;9.60;99.90
18160;DHT22;9205;52.032;4.314;2024-01-30T03:03:42;9.60;99.90
18160;DHT22;9205;52.032;4.314;2024-01-30T03:06:09;9.60;99.90
18160;DHT22;9205;52.032;4.314;2024-01-30T03:08:36;9.60;99.90
18160;DHT22;9205;52.032;4.314;2024-01-30T03:11:03;9.50;99.90
18160;DHT22;9205;52.032;4.314;2024-01-30T03:13:31;9.40;99.90
18160;DHT22;9205;52.032;4.314;2024-01-30T03:15:59;9.50;99.90
18160;DHT22;9205;52.032;4.314;2024-01-30T03:18:26;9.70;99.90
18160;DHT22;9205;52.032;4.314;2024-01-30T03:20:53;9.50;99.90
18160;DHT22;9205;52.032;4.314;2024-01-30T03:23:20;9.70;99.90
18160;DHT22;9205;52.032;4.314;2024-01-30T03:25:47;9.60;99.90
18160;DHT22;9205;52.032;4.314;2024-01-30T03:28:15;9.50;99.90
18160;DHT22;9205;52.032;4.314;2024-01-30T03:30:42;9.70;99.90
18160;DHT22;9205;52.032;4.314;2024-01-30T03:33:10;9.50;99.90
18160;DHT22;9205;52.032;4.314;2024-01-30T03:35:37;9.80;99.90
18160;DHT22;9205;52.032;4.314;2024-01-30T03:38:04;9.70;99.90
18160;DHT22;9205;52.032;4.314;2024-01-30T03:40:31;9.80;99.90
18160;DHT22;9205;52.032;4.314;2024-01-30T03:42:59;9.60;99.90
18160;DHT22;9205;52.032;4.314;2024-01-30T03:45:26;9.80;99.90
18160;DHT22;9205;52.032;4.314;2024-01-30T03:47:53;9.80;99.90
18160;DHT22;9205;52.032;4.314;2024-01-30T03:50:22;9.70;99.90
18160;DHT22;9205;52.032;4.314;2024-01-30T03:52:49;9.70;99.90
18160;DHT22;9205;52.032;4.314;2024-01-30T03:55:16;9.80;99.90
18160;DHT22;9205;52.032;4.314;2024-01-30T03:57:43;9.80;99.90
18160;DHT22;9205;52.032;4.314;2024-01-30T04:00:11;9.80;99.90
18160;DHT22;9205;52.032;4.314;2024-01-30T04:02:39;9.90;99.90
18160;DHT22;9205;52.032;4.314;2024-01-30T04:05:07;9.80;99.90
18160;DHT22;9205;52.032;4.314;2024-01-30T04:07:36;9.70;99.90
18160;DHT22;9205;52.032;4.314;2024-01-30T04:10:04;9.80;99.90
18160;DHT22;9205;52.032;4.314;2024-01-30T04:12:32;10.00;99.90
18160;DHT22;9205;52.032;4.314;2024-01-30T04:14:59;9.90;99.90
18160;DHT22;9205;52.032;4.314;2024-01-30T04:17:26;10.10;99.90
18160;DHT22;9205;52.032;4.314;2024-01-30T04:19:54;9.90;99.90
18160;DHT22;9205;52.032;4.314;2024-01-30T04:22:21;10.10;99.90
18160;DHT22;9205;52.032;4.314;2024-01-30T04:24:50;9.90;99.90
18160;DHT22;9205;52.032;4.314;2024-01-30T04:27:17;10.00;99.90
18160;DHT22;9205;52.032;4.314;2024-01-30T04:29:44;10.10;99.90
18160;DHT22;9205;52.032;4.314;2024-01-30T04:32:11;9.90;99.90
18160;DHT22;9205;52.032;4.314;2024-01-30T04:34:39;10.10;99.90
18160;DHT22;9205;52.032;4.314;2024-01-30T04:37:05;10.00;99.90
18160;DHT22;9205;52.032;4.314;2024-01-30T04:39:33;10.20;71.90
18160;DHT22;9205;52.032;4.314;2024-01-30T04:42:01;10.00;49.20
18160;DHT22;9205;52.032;4.314;2024-01-30T04:44:28;10.00;47.00
18160;DHT22;9205;52.032;4.314;2024-01-30T04:46:55;10.20;25.40
18160;DHT22;9205;52.032;4.314;2024-01-30T04:49:24;10.10;9.00
18160;DHT22;9205;52.032;4.314;2024-01-30T04:51:51;10.10;1.00
18160;DHT22;9205;52.032;4.314;2024-01-30T04:54:19;10.00;1.00
18160;DHT22;9205;52.032;4.314;2024-01-30T04:56:46;10.10;1.00
18160;DHT22;9205;52.032;4.314;2024-01-30T04:59:14;10.10;1.00
18160;DHT22;9205;52.032;4.314;2024-01-30T05:01:41;10.20;1.00
18160;DHT22;9205;52.032;4.314;2024-01-30T05:04:09;10.30;1.00
18160;DHT22;9205;52.032;4.314;2024-01-30T05:06:37;10.20;1.00
18160;DHT22;9205;52.032;4.314;2024-01-30T05:09:04;10.10;1.00
18160;DHT22;9205;52.032;4.314;2024-01-30T05:11:31;10.30;1.00
18160;DHT22;9205;52.032;4.314;2024-01-30T05:14:03;10.10;1.00
18160;DHT22;9205;52.032;4.314;2024-01-30T05:16:31;10.00;1.00
18160;DHT22;9205;52.032;4.314;2024-01-30T05:18:59;10.10;1.00
18160;DHT22;9205;52.032;4.314;2024-01-30T05:21:26;10.10;1.00
18160;DHT22;9205;52.032;4.314;2024-01-30T05:23:53;10.20;1.00
18160;DHT22;9205;52.032;4.314;2024-01-30T05:26:20;10.20;1.00
18160;DHT22;9205;52.032;4.314;2024-01-30T05:28:48;10.10;1.00
18160;DHT22;9205;52.032;4.314;2024-01-30T05:31:15;10.10;1.00
18160;DHT22;9205;52.032;4.314;2024-01-30T05:33:44;10.20;1.00
18160;DHT22;9205;52.032;4.314;2024-01-30T05:36:12;10.10;1.00
18160;DHT22;9205;52.032;4.314;2024-01-30T05:38:39;10.10;1.00
18160;DHT22;9205;52.032;4.314;2024-01-30T05:41:07;10.00;1.00
18160;DHT22;9205;52.032;4.314;2024-01-30T05:43:35;10.10;1.00
18160;DHT22;9205;52.032;4.314;2024-01-30T05:46:02;10.10;1.00
18160;DHT22;9205;52.032;4.314;2024-01-30T05:48:29;10.10;1.00
18160;DHT22;9205;52.032;4.314;2024-01-30T05:50:58;9.90;1.00
18160;DHT22;9205;52.032;4.314;2024-01-30T05:53:26;10.10;1.00
18160;DHT22;9205;52.032;4.314;2024-01-30T05:55:53;9.90;9.90
18160;DHT22;9205;52.032;4.314;2024-01-30T05:58:20;10.00;44.00
18160;DHT22;9205;52.032;4.314;2024-01-30T06:00:47;9.90;65.00
18160;DHT22;9205;52.032;4.314;2024-01-30T06:03:15;9.80;90.40
18160;DHT22;9205;52.032;4.314;2024-01-30T06:05:42;10.00;99.90
18160;DHT22;9205;52.032;4.314;2024-01-30T06:08:10;10.00;99.90
18160;DHT22;9205;52.032;4.314;2024-01-30T06:10:37;10.00;99.90
18160;DHT22;9205;52.032;4.314;2024-01-30T06:13:05;10.00;99.90
18160;DHT22;9205;52.032;4.314;2024-01-30T06:15:32;10.00;99.90
18160;DHT22;9205;52.032;4.314;2024-01-30T06:17:59;9.90;99.90
18160;DHT22;9205;52.032;4.314;2024-01-30T06:20:26;10.00;99.90
18160;DHT22;9205;52.032;4.314;2024-01-30T06:22:54;9.90;99.90
18160;DHT22;9205;52.032;4.314;2024-01-30T06:25:22;10.10;99.90
18160;DHT22;9205;52.032;4.314;2024-01-30T06:27:49;10.10;99.90
18160;DHT22;9205;52.032;4.314;2024-01-30T06:30:16;10.10;99.90
18160;DHT22;9205;52.032;4.314;2024-01-30T06:32:44;10.10;99.90
18160;DHT22;9205;52.032;4.314;2024-01-30T06:35:11;10.10;99.90
18160;DHT22;9205;52.032;4.314;2024-01-30T06:37:38;10.10;99.90
18160;DHT22;9205;52.032;4.314;2024-01-30T06:40:07;10.20;99.90
18160;DHT22;9205;52.032;4.314;2024-01-30T06:42:36;10.20;99.90
18160;DHT22;9205;52.032;4.314;2024-01-30T06:45:03;10.30;99.90
18160;DHT22;9205;52.032;4.314;2024-01-30T06:47:31;10.20;99.90
18160;DHT22;9205;52.032;4.314;2024-01-30T06:49:58;10.10;99.90
18160;DHT22;9205;52.032;4.314;2024-01-30T06:52:27;10.40;99.90
18160;DHT22;9205;52.032;4.314;2024-01-30T06:54:54;10.30;99.90
18160;DHT22;9205;52.032;4.314;2024-01-30T06:57:22;10.30;99.90
18160;DHT22;9205;52.032;4.314;2024-01-30T06:59:50;10.50;99.90
18160;DHT22;9205;52.032;4.314;2024-01-30T07:02:20;10.40;99.90
18160;DHT22;9205;52.032;4.314;2024-01-30T07:04:47;10.50;99.90
18160;DHT22;9205;52.032;4.314;2024-01-30T07:07:15;10.50;99.90
18160;DHT22;9205;52.032;4.314;2024-01-30T07:09:42;10.50;99.80
18160;DHT22;9205;52.032;4.314;2024-01-30T07:12:10;10.50;47.10
18160;DHT22;9205;52.032;4.314;2024-01-30T07:14:37;10.40;26.20
18160;DHT22;9205;52.032;4.314;2024-01-30T07:17:06;10.30;28.80
18160;DHT22;9205;52.032;4.314;2024-01-30T07:19:33;10.50;16.00
18160;DHT22;9205;52.032;4.314;2024-01-30T07:22:00;10.40;28.20
18160;DHT22;9205;52.032;4.314;2024-01-30T07:24:28;10.30;23.90
18160;DHT22;9205;52.032;4.314;2024-01-30T07:26:55;10.40;31.40
18160;DHT22;9205;52.032;4.314;2024-01-30T07:29:22;10.50;28.10
18160;DHT22;9205;52.032;4.314;2024-01-30T07:31:49;10.50;35.40
18160;DHT22;9205;52.032;4.314;2024-01-30T07:34:18;10.40;50.60
18160;DHT22;9205;52.032;4.314;2024-01-30T07:36:45;10.50;56.90
18160;DHT22;9205;52.032;4.314;2024-01-30T07:39:12;10.40;79.50
18160;DHT22;9205;52.032;4.314;2024-01-30T07:41:40;10.30;98.80
18160;DHT22;9205;52.032;4.314;2024-01-30T07:44:07;10.40;99.90
18160;DHT22;9205;52.032;4.314;2024-01-30T07:46:34;10.50;99.90
18160;DHT22;9205;52.032;4.314;2024-01-30T07:49:01;10.40;99.90
18160;DHT22;9205;52.032;4.314;2024-01-30T07:51:30;10.50;99.90
18160;DHT22;9205;52.032;4.314;2024-01-30T07:53:58;10.40;99.90
18160;DHT22;9205;52.032;4.314;2024-01-30T07:56:25;10.50;99.90
18160;DHT22;9205;52.032;4.314;2024-01-30T07:58:52;10.50;99.90
18160;DHT22;9205;52.032;4.314;2024-01-30T08:01:20;10.30;99.90
18160;DHT22;9205;52.032;4.314;2024-01-30T08:03:47;10.30;99.90
18160;DHT22;9205;52.032;4.314;2024-01-30T08:06:14;10.40;99.90
18160;DHT22;9205;52.032;4.314;2024-01-30T08:08:42;10.30;99.90
18160;DHT22;9205;52.032;4.314;2024-01-30T08:11:09;10.40;99.90
18160;DHT22;9205;52.032;4.314;2024-01-30T08:13:36;10.40;99.90
18160;DHT22;9205;52.032;4.314;2024-01-30T08:16:04;10.50;99.90
18160;DHT22;9205;52.032;4.314;2024-01-30T08:18:32;10.40;99.90
18160;DHT22;9205;52.032;4.314;2024-01-30T08:21:00;10.50;99.90
18160;DHT22;9205;52.032;4.314;2024-01-30T08:23:27;10.50;99.90
18160;DHT22;9205;52.032;4.314;2024-01-30T08:25:56;10.50;99.90
18160;DHT22;9205;52.032;4.314;2024-01-30T08:28:23;10.40;99.90
18160;DHT22;9205;52.032;4.314;2024-01-30T08:30:52;10.40;99.90
18160;DHT22;9205;52.032;4.314;2024-01-30T08:33:19;10.60;99.90
18160;DHT22;9205;52.032;4.314;2024-01-30T08:35:46;10.30;99.90
18160;DHT22;9205;52.032;4.314;2024-01-30T08:38:14;10.50;99.90
18160;DHT22;9205;52.032;4.314;2024-01-30T08:40:41;10.40;99.90
18160;DHT22;9205;52.032;4.314;2024-01-30T08:43:10;10.40;99.90
18160;DHT22;9205;52.032;4.314;2024-01-30T08:45:38;10.40;99.90
18160;DHT22;9205;52.032;4.314;2024-01-30T08:48:06;10.50;99.90
18160;DHT22;9205;52.032;4.314;2024-01-30T08:50:35;10.50;99.90
18160;DHT22;9205;52.032;4.314;2024-01-30T08:53:02;10.60;99.90
18160;DHT22;9205;52.032;4.314;2024-01-30T08:55:30;10.60;99.90
18160;DHT22;9205;52.032;4.314;2024-01-30T08:57:58;10.60;99.90
18160;DHT22;9205;52.032;4.314;2024-01-30T09:00:27;10.60;99.90
18160;DHT22;9205;52.032;4.314;2024-01-30T09:02:55;10.40;99.90
18160;DHT22;9205;52.032;4.314;2024-01-30T09:05:23;10.70;99.90
18160;DHT22;9205;52.032;4.314;2024-01-30T09:07:50;10.60;99.90
18160;DHT22;9205;52.032;4.314;2024-01-30T09:10:18;10.50;99.90
18160;DHT22;9205;52.032;4.314;2024-01-30T09:12:46;10.50;99.90
18160;DHT22;9205;52.032;4.314;2024-01-30T09:15:14;10.50;99.90
18160;DHT22;9205;52.032;4.314;2024-01-30T09:17:43;10.60;99.90
18160;DHT22;9205;52.032;4.314;2024-01-30T09:20:11;10.40;99.90
18160;DHT22;9205;52.032;4.314;2024-01-30T09:22:38;10.50;99.90
18160;DHT22;9205;52.032;4.314;2024-01-30T09:25:06;10.20;20.30
18160;DHT22;9205;52.032;4.314;2024-01-30T09:27:34;10.20;1.00
18160;DHT22;9205;52.032;4.314;2024-01-30T09:30:02;10.30;1.00
18160;DHT22;9205;52.032;4.314;2024-01-30T09:32:30;10.00;1.00
18160;DHT22;9205;52.032;4.314;2024-01-30T09:34:59;9.90;1.00
18160;DHT22;9205;52.032;4.314;2024-01-30T09:37:27;10.00;1.00
18160;DHT22;9205;52.032;4.314;2024-01-30T09:39:54;9.80;1.00
18160;DHT22;9205;52.032;4.314;2024-01-30T09:42:28;9.90;1.00
18160;DHT22;9205;52.032;4.314;2024-01-30T09:45:01;9.90;1.00
18160;DHT22;9205;52.032;4.314;2024-01-30T09:47:32;9.70;1.00
18160;DHT22;9205;52.032;4.314;2024-01-30T09:50:01;9.80;1.00
18160;DHT22;9205;52.032;4.314;2024-01-30T09:52:32;9.70;1.00
18160;DHT22;9205;52.032;4.314;2024-01-30T09:55:00;9.80;1.00
18160;DHT22;9205;52.032;4.314;2024-01-30T09:57:28;9.70;1.00
18160;DHT22;9205;52.032;4.314;2024-01-30T09:59:55;9.70;1.00
18160;DHT22;9205;52.032;4.314;2024-01-30T10:02:23;9.70;1.00
18160;DHT22;9205;52.032;4.314;2024-01-30T10:04:51;9.60;1.00
18160;DHT22;9205;52.032;4.314;2024-01-30T10:07:20;9.70;1.00
18160;DHT22;9205;52.032;4.314;2024-01-30T10:09:49;9.70;1.00
18160;DHT22;9205;52.032;4.314;2024-01-30T10:12:21;9.50;1.00
18160;DHT22;9205;52.032;4.314;2024-01-30T10:14:49;9.50;1.00
18160;DHT22;9205;52.032;4.314;2024-01-30T10:17:16;9.40;1.00
18160;DHT22;9205;52.032;4.314;2024-01-30T10:19:47;9.40;1.00
18160;DHT22;9205;52.032;4.314;2024-01-30T10:22:15;9.30;84.30
18160;DHT22;9205;52.032;4.314;2024-01-30T10:24:44;9.50;99.90
18160;DHT22;9205;52.032;4.314;2024-01-30T10:27:12;9.20;99.90
18160;DHT22;9205;52.032;4.314;2024-01-30T10:29:39;9.10;99.90
18160;DHT22;9205;52.032;4.314;2024-01-30T10:32:07;9.30;99.90
18160;DHT22;9205;52.032;4.314;2024-01-30T10:34:35;9.30;99.90
18160;DHT22;9205;52.032;4.314;2024-01-30T10:37:07;9.20;99.90
18160;DHT22;9205;52.032;4.314;2024-01-30T10:39:39;9.00;99.90
18160;DHT22;9205;52.032;4.314;2024-01-30T10:42:11;9.20;99.90
18160;DHT22;9205;52.032;4.314;2024-01-30T10:44:48;8.90;99.90
18160;DHT22;9205;52.032;4.314;2024-01-30T10:47:28;9.20;99.90
18160;DHT22;9205;52.032;4.314;2024-01-30T10:49:57;9.00;99.90
18160;DHT22;9205;52.032;4.314;2024-01-30T10:52:25;8.90;99.90
18160;DHT22;9205;52.032;4.314;2024-01-30T10:54:55;8.90;99.90
18160;DHT22;9205;52.032;4.314;2024-01-30T10:57:25;8.70;99.90
18160;DHT22;9205;52.032;4.314;2024-01-30T10:59:57;8.80;99.90
18160;DHT22;9205;52.032;4.314;2024-01-30T11:02:27;8.50;99.90
18160;DHT22;9205;52.032;4.314;2024-01-30T11:04:57;8.80;99.90
18160;DHT22;9205;52.032;4.314;2024-01-30T11:07:26;8.50;99.90
18160;DHT22;9205;52.032;4.314;2024-01-30T11:10:00;8.60;99.90
18160;DHT22;9205;52.032;4.314;2024-01-30T11:12:32;8.60;99.90
18160;DHT22;9205;52.032;4.314;2024-01-30T11:15:05;8.80;99.90
18160;DHT22;9205;52.032;4.314;2024-01-30T11:17:42;8.70;99.90
18160;DHT22;9205;52.032;4.314;2024-01-30T11:20:11;8.60;99.90
18160;DHT22;9205;52.032;4.314;2024-01-30T11:22:45;9.00;99.90
18160;DHT22;9205;52.032;4.314;2024-01-30T11:25:14;8.80;99.90
18160;DHT22;9205;52.032;4.314;2024-01-30T11:27:44;9.00;99.90
18160;DHT22;9205;52.032;4.314;2024-01-30T11:30:22;8.90;99.90
18160;DHT22;9205;52.032;4.314;2024-01-30T11:33:04;9.00;99.90
18160;DHT22;9205;52.032;4.314;2024-01-30T11:35:34;8.90;99.90
18160;DHT22;9205;52.032;4.314;2024-01-30T11:38:22;9.00;99.90
18160;DHT22;9205;52.032;4.314;2024-01-30T11:40:50;9.00;99.90
18160;DHT22;9205;52.032;4.314;2024-01-30T11:43:21;8.90;99.90
18160;DHT22;9205;52.032;4.314;2024-01-30T11:45:49;8.90;99.90
18160;DHT22;9205;52.032;4.314;2024-01-30T11:48:18;9.00;99.90
18160;DHT22;9205;52.032;4.314;2024-01-30T11:50:45;9.00;99.90
18160;DHT22;9205;52.032;4.314;2024-01-30T11:53:13;8.90;99.90
18160;DHT22;9205;52.032;4.314;2024-01-30T11:55:41;8.90;99.90
18160;DHT22;9205;52.032;4.314;2024-01-30T11:58:11;9.00;99.90
18160;DHT22;9205;52.032;4.314;2024-01-30T12:00:55;9.10;99.90
18160;DHT22;9205;52.032;4.314;2024-01-30T12:03:23;8.90;99.90
18160;DHT22;9205;52.032;4.314;2024-01-30T12:05:55;9.10;99.90
18160;DHT22;9205;52.032;4.314;2024-01-30T12:08:24;9.10;99.90
18160;DHT22;9205;52.032;4.314;2024-01-30T12:10:56;8.90;99.70
18160;DHT22;9205;52.032;4.314;2024-01-30T12:13:25;9.10;76.90
18160;DHT22;9205;52.032;4.314;2024-01-30T12:15:54;9.00;63.80
18160;DHT22;9205;52.032;4.314;2024-01-30T12:18:23;9.10;63.90
18160;DHT22;9205;52.032;4.314;2024-01-30T12:20:58;9.10;56.00
18160;DHT22;9205;52.032;4.314;2024-01-30T12:23:27;9.10;49.20
18160;DHT22;9205;52.032;4.314;2024-01-30T12:25:55;8.90;48.90
18160;DHT22;9205;52.032;4.314;2024-01-30T12:28:26;9.10;80.80
18160;DHT22;9205;52.032;4.314;2024-01-30T12:31:06;9.00;93.50
18160;DHT22;9205;52.032;4.314;2024-01-30T12:33:36;8.90;99.90
18160;DHT22;9205;52.032;4.314;2024-01-30T12:36:04;9.00;99.90
18160;DHT22;9205;52.032;4.314;2024-01-30T12:38:33;9.20;99.90
18160;DHT22;9205;52.032;4.314;2024-01-30T12:41:01;8.80;99.90
18160;DHT22;9205;52.032;4.314;2024-01-30T12:43:31;9.10;99.90
18160;DHT22;9205;52.032;4.314;2024-01-30T12:46:04;8.80;99.90
18160;DHT22;9205;52.032;4.314;2024-01-30T12:48:32;8.80;99.90
18160;DHT22;9205;52.032;4.314;2024-01-30T12:51:00;8.70;99.90
18160;DHT22;9205;52.032;4.314;2024-01-30T12:53:28;8.90;99.90
18160;DHT22;9205;52.032;4.314;2024-01-30T12:55:56;8.50;99.90
18160;DHT22;9205;52.032;4.314;2024-01-30T12:58:24;8.60;99.90
18160;DHT22;9205;52.032;4.314;2024-01-30T13:00:52;8.80;99.90
18160;DHT22;9205;52.032;4.314;2024-01-30T13:03:23;8.40;99.90
18160;DHT22;9205;52.032;4.314;2024-01-30T13:05:51;8.50;99.90
18160;DHT22;9205;52.032;4.314;2024-01-30T13:08:19;8.60;99.90
18160;DHT22;9205;52.032;4.314;2024-01-30T13:10:46;8.60;99.90
18160;DHT22;9205;52.032;4.314;2024-01-30T13:13:14;8.20;99.90
18160;DHT22;9205;52.032;4.314;2024-01-30T13:15:45;8.60;99.90
18160;DHT22;9205;52.032;4.314;2024-01-30T13:18:16;8.50;99.90
18160;DHT22;9205;52.032;4.314;2024-01-30T13:20:45;8.10;99.90
18160;DHT22;9205;52.032;4.314;2024-01-30T13:23:12;8.50;99.90
18160;DHT22;9205;52.032;4.314;2024-01-30T13:25:43;8.10;99.90
18160;DHT22;9205;52.032;4.314;2024-01-30T13:28:10;8.10;99.90
18160;DHT22;9205;52.032;4.314;2024-01-30T13:30:38;8.20;99.90
18160;DHT22;9205;52.032;4.314;2024-01-30T13:33:06;8.40;99.90
18160;DHT22;9205;52.032;4.314;2024-01-30T13:35:36;8.10;99.90
18160;DHT22;9205;52.032;4.314;2024-01-30T13:38:08;8.20;99.90
18160;DHT22;9205;52.032;4.314;2024-01-30T13:40:36;8.10;99.90
18160;DHT22;9205;52.032;4.314;2024-01-30T13:43:06;8.10;99.90
18160;DHT22;9205;52.032;4.314;2024-01-30T13:45:34;8.10;99.90
18160;DHT22;9205;52.032;4.314;2024-01-30T13:48:02;8.20;99.90
18160;DHT22;9205;52.032;4.314;2024-01-30T13:50:30;8.00;99.90
18160;DHT22;9205;52.032;4.314;2024-01-30T13:53:03;8.30;99.90
18160;DHT22;9205;52.032;4.314;2024-01-30T13:55:33;8.10;99.90
18160;DHT22;9205;52.032;4.314;2024-01-30T13:58:02;8.00;99.90
18160;DHT22;9205;52.032;4.314;2024-01-30T14:00:30;8.20;99.90
18160;DHT22;9205;52.032;4.314;2024-01-30T14:02:57;8.00;99.90
18160;DHT22;9205;52.032;4.314;2024-01-30T14:05:29;8.10;99.90
18160;DHT22;9205;52.032;4.314;2024-01-30T14:08:10;8.30;99.90
18160;DHT22;9205;52.032;4.314;2024-01-30T14:10:45;8.20;99.90
18160;DHT22;9205;52.032;4.314;2024-01-30T14:13:13;7.80;99.90
18160;DHT22;9205;52.032;4.314;2024-01-30T14:15:40;7.90;99.90
18160;DHT22;9205;52.032;4.314;2024-01-30T14:18:08;8.10;99.90
18160;DHT22;9205;52.032;4.314;2024-01-30T14:20:39;8.20;99.90
18160;DHT22;9205;52.032;4.314;2024-01-30T14:23:06;7.80;99.90
18160;DHT22;9205;52.032;4.314;2024-01-30T14:25:35;7.80;99.90
18160;DHT22;9205;52.032;4.314;2024-01-30T14:28:10;8.20;99.90
18160;DHT22;9205;52.032;4.314;2024-01-30T14:30:43;8.20;99.90
18160;DHT22;9205;52.032;4.314;2024-01-30T14:33:17;7.80;99.90
18160;DHT22;9205;52.032;4.314;2024-01-30T14:35:54;8.20;99.90
18160;DHT22;9205;52.032;4.314;2024-01-30T14:38:22;8.10;99.90
18160;DHT22;9205;52.032;4.314;2024-01-30T14:41:08;7.70;99.90
18160;DHT22;9205;52.032;4.314;2024-01-30T14:43:38;8.20;99.90
18160;DHT22;9205;52.032;4.314;2024-01-30T14:46:05;7.80;99.90
18160;DHT22;9205;52.032;4.314;2024-01-30T14:48:37;8.20;99.90
18160;DHT22;9205;52.032;4.314;2024-01-30T14:51:11;7.80;99.90
18160;DHT22;9205;52.032;4.314;2024-01-30T14:57:23;8.20;99.90
18160;DHT22;9205;52.032;4.314;2024-01-30T14:59:56;8.20;99.90
18160;DHT22;9205;52.032;4.314;2024-01-30T15:02:31;7.80;99.90
18160;DHT22;9205;52.032;4.314;2024-01-30T15:05:05;7.80;99.90
18160;DHT22;9205;52.032;4.314;2024-01-30T15:07:32;8.20;99.90
18160;DHT22;9205;52.032;4.314;2024-01-30T15:10:09;8.20;99.90
18160;DHT22;9205;52.032;4.314;2024-01-30T15:12:56;8.20;99.90
18160;DHT22;9205;52.032;4.314;2024-01-30T15:15:25;7.70;99.90
18160;DHT22;9205;52.032;4.314;2024-01-30T15:17:54;7.80;99.90
18160;DHT22;9205;52.032;4.314;2024-01-30T15:20:21;7.70;99.90
18160;DHT22;9205;52.032;4.314;2024-01-30T15:22:49;7.70;99.90
18160;DHT22;9205;52.032;4.314;2024-01-30T15:25:16;8.20;99.90
18160;DHT22;9205;52.032;4.314;2024-01-30T15:27:44;7.70;99.90
18160;DHT22;9205;52.032;4.314;2024-01-30T15:30:12;7.70;99.90
18160;DHT22;9205;52.032;4.314;2024-01-30T15:32:43;7.70;99.90
18160;DHT22;9205;52.032;4.314;2024-01-30T15:35:10;8.20;99.90
18160;DHT22;9205;52.032;4.314;2024-01-30T15:37:38;7.80;99.90
18160;DHT22;9205;52.032;4.314;2024-01-30T15:40:06;7.70;99.90
18160;DHT22;9205;52.032;4.314;2024-01-30T15:42:34;8.20;99.90
18160;DHT22;9205;52.032;4.314;2024-01-30T15:45:05;7.70;99.90
18160;DHT22;9205;52.032;4.314;2024-01-30T15:47:34;8.10;99.90
18160;DHT22;9205;52.032;4.314;2024-01-30T15:50:04;7.50;99.90
18160;DHT22;9205;52.032;4.314;2024-01-30T15:52:32;7.60;99.90
18160;DHT22;9205;52.032;4.314;2024-01-30T15:55:00;8.00;99.90
18160;DHT22;9205;52.032;4.314;2024-01-30T15:57:27;8.10;99.90
18160;DHT22;9205;52.032;4.314;2024-01-30T15:59:55;7.80;99.90
18160;DHT22;9205;52.032;4.314;2024-01-30T16:02:22;8.00;99.90
18160;DHT22;9205;52.032;4.314;2024-01-30T16:04:53;8.00;99.90
18160;DHT22;9205;52.032;4.314;2024-01-30T16:07:22;7.90;99.90
18160;DHT22;9205;52.032;4.314;2024-01-30T16:09:51;7.90;99.90
18160;DHT22;9205;52.032;4.314;2024-01-30T16:12:21;7.50;99.90
18160;DHT22;9205;52.032;4.314;2024-01-30T16:14:50;7.50;99.90